National Weather Service Raw Text Product

Displaying AFOS PIL: TAFOTM Received: 2018-03-08 11:20 UTC


757 
FTUS43 KDMX 081120
TAFOTM
TAF
KOTM 081120Z 0812/0912 31010KT P6SM FEW120
     FM090100 VRB04KT P6SM SCT150=